Terminal Aerodrome Forecast
Issued by NWS Sioux Falls, SD

Home | Current Version | Previous Version | Graphics & Text | Print | Product List | Glossary On
Versions: 1 2 3 4 5 6 7 8 9 10 11 12 13 14 15 16 17 18 19 20 21 22 23 24 25 26 27 28 29 30 31 32 33 34 35 36 37 38 39
000
FTUS43 KFSD 260500 RRA
TAFSUX
TAF
KSUX 260545Z 2606/2706 01004KT P6SM BKN100
     FM260700 01004KT P6SM BKN080
      TEMPO 2610/2613 -SHRA BKN050
     FM261500 05006KT P6SM BKN080
     FM261900 10006KT P6SM OVC090
     FM270200 07005KT P6SM OVC060
      TEMPO 2702/2706 5SM TSRA OVC035CB=

USA.gov is the U.S. government's official web portal to all federal, state and local government web resources and services.